Lakeland, FL

4:49 AM EDT on September 02, 2015 (GMT -0400)
Southeastern University | | Change Station
CLOSE
Current Station
Personal Weather Station
Location: Lakeland, FL
Elevation: 166 ft
Nearby Weather Stations

Elev 166 ft 28.03 °N, 81.92 °W | Updated 2 seconds ago

Clear
Clear
77.8 °F
Feels Like 80 °F
N
0.0
Wind Variable Wind from ENE
Gusts 1.0 mph

Today
High -- | Low -- °F
--% Chance of Precip.
Yesterday
High -- | Low -- °F
Precip. -- in
7:06 AM 7:47 PM
Waning Gibbous, 82% visible
Pressure 30.06 in
Visibility 10.0 miles
Clouds Clear
Heat Index 80 °F
Dew Point 77 °F
Humidity 96%
Rainfall 0.00 in
Snow Depth Not available.
UV 0 out of 12
Pollen 3.10 out of 12
Air Quality Not available.
Flu Activity Not available.
METAR KGIF 020753Z AUTO 00000KT 10SM CLR 26/25 A3006 RMK AO2 SLP177 T02610250
Pressure 30.06 in
Visibility 10.0 miles
Clouds Clear
Heat Index 80 °F
Dew Point 77 °F
Humidity 96%
Rainfall 0.00 in
Snow Depth Not available.
UV 0 out of 12
Pollen 3.10 out of 12
Air Quality Not available.
Flu Activity Not available.
METAR KGIF 020753Z AUTO 00000KT 10SM CLR 26/25 A3006 RMK AO2 SLP177 T02610250

10-Day Weather Forecast

×

Almanac

Astronomy

Sep. 02, 2015 Rise Set
Actual Time
Civil Twilight
Nautical Twilight
Astronomical Twilight
Moon
Length of Visible Light
Length of Day
Tomorrow will be .
, % of the Moon is Illuminated

Today's Extremes

State Highs State Lows

Community

WunderPhotos

Upload Photos

1,851,728 photos uploaded!

WunderBlogs® & News

Nearby

Air Quality

  Air Quality AQ Index Pollutant
Not available.

Snow Depth

Station Depth Elevation

Earthquake Activity

City Distance Mag. Time & Date
Minimum magnitude displayed is 2.5.

Coastal Water Temperatures

Place Temperature

Stations

Nearby Weather Stations

Station Location Temp. Windchill Dew Point Humidity Wind Precip. Elev Updated Type